Time;durP1;ratioP1;P1;durP2;ratioP2;P2;SDS_P1;SDS_P2;PMS_P1;PMS_P2;Temp;Humidity;BMP_temperature;BMP_pressure;BME280_temperature;BME280_humidity;BME280_pressure;Samples;Min_cycle;Max_cycle;Signal;HPM_P1;HPM_P2
2022/07/24 00:07:41;;;;;;;17.07;15.47;;;;;23.70;99153.00;;;;16746106;28;20214;-48
2022/07/24 00:15:46;;;;;;;15.53;14.33;;;;;23.80;99158.00;;;;16757532;28;20225;-47
2022/07/24 00:23:49;;;;;;;17.53;16.10;;;;;24.60;99160.00;;;;16756852;28;20237;-48
2022/07/24 00:31:52;;;;;;;17.30;15.90;;;;;23.90;99154.00;;;;16754878;28;20225;-48
2022/07/24 00:39:55;;;;;;;16.43;15.13;;;;;23.90;99150.00;;;;16753747;28;20229;-48
2022/07/24 00:47:59;;;;;;;15.10;13.90;;;;;24.30;99146.00;;;;16757710;28;20209;-48
2022/07/24 00:56:01;;;;;;;17.20;15.70;;;;;23.20;99146.00;;;;16757900;28;20229;-48
2022/07/24 01:04:05;;;;;;;16.97;15.57;;;;;23.30;99160.00;;;;16752312;28;20213;-45
2022/07/24 01:12:08;;;;;;;15.63;14.33;;;;;23.60;99163.00;;;;16750265;28;20290;-46
2022/07/24 01:20:13;;;;;;;16.67;15.40;;;;;23.10;99150.00;;;;16751155;28;20202;-46
2022/07/24 01:28:17;;;;;;;17.17;15.77;;;;;23.20;99148.00;;;;16750128;28;20221;-46
2022/07/24 01:36:19;;;;;;;19.37;17.77;;;;;22.80;99152.00;;;;16745803;28;20271;-46
2022/07/24 01:44:23;;;;;;;17.90;16.30;;;;;23.00;99154.00;;;;16749095;28;20937;-46
2022/07/24 01:52:26;;;;;;;18.30;16.80;;;;;22.70;99157.00;;;;16762685;28;20732;-46
2022/07/24 02:00:29;;;;;;;16.27;14.97;;;;;22.30;99158.00;;;;16770244;28;20500;-46
2022/07/24 02:08:32;;;;;;;19.17;17.47;;;;;23.10;99154.00;;;;16772137;28;20274;-46
2022/07/24 02:16:36;;;;;;;18.77;16.87;;;;;23.10;99149.00;;;;16775772;28;20657;-45
2022/07/24 02:24:38;;;;;;;19.33;17.73;;;;;22.40;99153.00;;;;16766097;28;20246;-46
2022/07/24 02:32:42;;;;;;;18.27;16.53;;;;;22.60;99151.00;;;;16766838;28;20230;-46
2022/07/24 02:40:45;;;;;;;17.93;16.53;;;;;22.20;99155.00;;;;16762947;28;20278;-46
2022/07/24 02:48:48;;;;;;;17.83;16.17;;;;;22.80;99152.00;;;;16764691;28;20259;-46
2022/07/24 02:56:51;;;;;;;18.27;16.60;;;;;22.10;99159.00;;;;16763718;28;20682;-46
2022/07/24 03:04:55;;;;;;;18.90;17.07;;;;;22.40;99155.00;;;;16756282;28;20806;-46
2022/07/24 03:12:57;;;;;;;19.73;18.13;;;;;22.70;99153.00;;;;16769246;28;20224;-46
2022/07/24 03:21:01;;;;;;;17.97;16.47;;;;;22.10;99147.00;;;;16763381;28;20267;-46
2022/07/24 03:29:04;;;;;;;18.43;16.70;;;;;21.80;99156.00;;;;16760474;28;20225;-46
2022/07/24 03:37:08;;;;;;;20.03;18.50;;;;;21.80;99165.00;;;;16766434;28;20229;-46
2022/07/24 03:45:11;;;;;;;23.47;21.57;;;;;21.70;99173.00;;;;16775478;28;20294;-46
2022/07/24 03:53:15;;;;;;;18.67;17.27;;;;;21.70;99173.00;;;;16754362;28;20225;-46
2022/07/24 04:01:17;;;;;;;18.83;17.07;;;;;22.60;99171.00;;;;16757658;28;20209;-46
2022/07/24 04:09:21;;;;;;;17.70;16.20;;;;;22.60;99164.00;;;;16758965;28;20711;-46
2022/07/24 04:17:24;;;;;;;18.17;16.73;;;;;21.90;99179.00;;;;16760423;28;20221;-46
2022/07/24 04:25:27;;;;;;;17.50;15.93;;;;;21.30;99190.00;;;;16763979;28;20272;-46
2022/07/24 04:33:30;;;;;;;17.67;16.23;;;;;22.30;99198.00;;;;16763455;28;20315;-46
2022/07/24 04:41:34;;;;;;;20.53;18.93;;;;;22.50;99192.00;;;;16768078;28;20731;-46
2022/07/24 04:49:36;;;;;;;19.90;18.30;;;;;23.20;99194.00;;;;16762350;28;20226;-46
2022/07/24 04:57:40;;;;;;;19.33;17.77;;;;;23.20;99197.00;;;;16761406;28;20240;-46
2022/07/24 05:05:43;;;;;;;20.40;18.70;;;;;23.70;99199.00;;;;16776279;28;20221;-46
2022/07/24 05:13:47;;;;;;;19.57;17.97;;;;;23.80;99210.00;;;;16768702;28;20216;-45
2022/07/24 05:21:49;;;;;;;19.73;18.03;;;;;24.10;99203.00;;;;16796654;22;20283;-46
2022/07/24 05:29:53;;;;;;;17.40;15.93;;;;;25.60;99207.00;;;;16783455;28;20232;-46
2022/07/24 05:37:56;;;;;;;17.77;16.17;;;;;25.20;99206.00;;;;16790820;28;20266;-47
2022/07/24 05:46:00;;;;;;;18.43;17.03;;;;;25.40;99190.00;;;;16786599;28;20217;-46
2022/07/24 05:54:03;;;;;;;17.70;16.30;;;;;25.60;99187.00;;;;16807589;28;20305;-47
2022/07/24 06:02:06;;;;;;;17.90;16.30;;;;;26.30;99184.00;;;;16782941;28;20217;-47
2022/07/24 06:10:10;;;;;;;19.27;17.67;;;;;26.20;99177.00;;;;16778525;28;20790;-47
2022/07/24 06:18:13;;;;;;;16.00;14.70;;;;;27.10;99193.00;;;;16815918;28;20220;-47
2022/07/24 06:26:16;;;;;;;16.83;15.53;;;;;26.40;99181.00;;;;16797546;28;20225;-46
2022/07/24 06:34:23;;;;;;;18.50;17.00;;;;;26.70;99191.00;;;;16791164;28;20252;-46
2022/07/24 06:42:26;;;;;;;17.80;16.17;;;;;27.80;99194.00;;;;16794714;28;20217;-47
2022/07/24 06:50:30;;;;;;;17.80;16.27;;;;;27.30;99180.00;;;;16747534;28;20300;-47
2022/07/24 06:58:33;;;;;;;14.37;13.23;;;;;27.70;99183.00;;;;16772818;28;20206;-47
2022/07/24 07:06:37;;;;;;;16.13;14.73;;;;;27.50;99177.00;;;;16765041;28;20233;-47
2022/07/24 07:14:39;;;;;;;16.37;14.90;;;;;27.90;99186.00;;;;16762825;28;20232;-47
2022/07/24 07:22:43;;;;;;;14.70;13.60;;;;;28.30;99176.00;;;;16756040;28;20253;-47
2022/07/24 07:30:46;;;;;;;15.37;13.80;;;;;28.90;99179.00;;;;16757108;28;20689;-45
2022/07/24 07:38:50;;;;;;;14.40;13.17;;;;;29.00;99175.00;;;;16752024;28;20201;-47
2022/07/24 07:46:52;;;;;;;13.97;12.80;;;;;29.10;99171.00;;;;16754215;28;20766;-47
2022/07/24 07:54:57;;;;;;;14.20;13.10;;;;;29.00;99180.00;;;;16757833;28;20218;-47
2022/07/24 08:03:00;;;;;;;10.97;10.13;;;;;29.60;99181.00;;;;16766087;28;20213;-45
2022/07/24 08:11:03;;;;;;;12.93;11.70;;;;;29.60;99184.00;;;;16759046;28;20297;-46
2022/07/24 08:19:06;;;;;;;15.07;13.50;;;;;30.00;99182.00;;;;16745492;28;20669;-46
2022/07/24 08:27:10;;;;;;;11.30;10.33;;;;;30.00;99169.00;;;;16762571;28;20233;-46
2022/07/24 08:35:13;;;;;;;11.57;10.70;;;;;29.90;99168.00;;;;16765713;28;20228;-47
2022/07/24 08:43:17;;;;;;;12.20;10.90;;;;;30.00;99155.00;;;;16759476;28;20709;-46
2022/07/24 08:51:20;;;;;;;10.47;9.37;;;;;30.30;99147.00;;;;16754597;28;20903;-46
2022/07/24 08:59:25;;;;;;;11.77;10.73;;;;;30.30;99154.00;;;;16768445;28;20237;-46
2022/07/24 09:07:29;;;;;;;11.47;10.47;;;;;31.00;99158.00;;;;16800518;28;20303;-47
2022/07/24 09:15:45;;;;;;;9.83;9.03;;;;;31.00;99147.00;;;;16811692;28;20620;-46
2022/07/24 09:23:48;;;;;;;11.53;10.53;;;;;30.90;99149.00;;;;16794039;28;20725;-47
2022/07/24 09:31:53;;;;;;;16.03;14.60;;;;;31.30;99151.00;;;;16792492;28;20217;-47
2022/07/24 09:40:08;;;;;;;11.13;10.03;;;;;31.70;99145.00;;;;16778065;28;20229;-46
2022/07/24 09:48:12;;;;;;;9.20;8.50;;;;;31.90;99151.00;;;;16756119;28;20232;-46
2022/07/24 09:56:16;;;;;;;10.93;10.03;;;;;32.10;99130.00;;;;16764249;28;20225;-47
2022/07/24 10:04:20;;;;;;;8.87;8.27;;;;;31.70;99123.00;;;;16773728;28;20685;-47
2022/07/24 10:12:24;;;;;;;16.23;9.17;;;;;31.50;99115.00;;;;16779715;28;20358;-46
2022/07/24 10:20:38;;;;;;;11.00;9.87;;;;;31.40;99114.00;;;;16761694;28;20202;-47
2022/07/24 10:28:42;;;;;;;7.97;7.37;;;;;32.80;99106.00;;;;16773131;28;20206;-47
2022/07/24 10:36:56;;;;;;;10.50;9.60;;;;;31.80;99092.00;;;;16789007;28;20253;-47
2022/07/24 10:45:17;;;;;;;11.17;10.07;;;;;32.10;99093.00;;;;16774528;28;20298;-47
2022/07/24 10:53:25;;;;;;;13.10;9.13;;;;;32.70;99094.00;;;;16780882;28;20230;-46
2022/07/24 11:01:37;;;;;;;9.67;8.87;;;;;32.00;99093.00;;;;16778728;28;20294;-47
2022/07/24 11:09:59;;;;;;;9.70;8.90;;;;;32.80;99087.00;;;;16764806;28;20229;-47
2022/07/24 11:18:14;;;;;;;9.80;9.00;;;;;34.30;99080.00;;;;16775096;28;20698;-49
2022/07/24 11:26:41;;;;;;;9.07;8.27;;;;;33.20;99076.00;;;;16763928;22;20218;-74
2022/07/24 11:34:45;;;;;;;8.73;8.13;;;;;33.00;99067.00;;;;16733049;28;20221;-75
2022/07/24 11:42:56;;;;;;;9.50;8.80;;;;;33.10;99064.00;;;;16710732;28;20214;-75
2022/07/24 11:51:05;;;;;;;9.37;8.57;;;;;32.10;99049.00;;;;16706089;28;20233;-77
2022/07/24 11:59:22;;;;;;;8.63;7.87;;;;;33.00;99041.00;;;;16703841;28;20720;-75
2022/07/24 12:07:26;;;;;;;8.10;7.50;;;;;35.40;99029.00;;;;16704554;28;20279;-69
2022/07/24 12:15:31;;;;;;;7.97;7.47;;;;;36.60;99014.00;;;;16703712;28;20718;-72
2022/07/24 12:23:34;;;;;;;7.60;7.20;;;;;34.80;99005.00;;;;16711974;28;20234;-82
2022/07/24 12:31:37;;;;;;;8.70;8.10;;;;;37.70;98994.00;;;;16721991;28;20226;-82
2022/07/24 12:39:47;;;;;;;8.60;8.10;;;;;38.10;98989.00;;;;16719097;28;20186;-82
2022/07/24 12:48:13;;;;;;;8.93;8.23;;;;;38.70;98987.00;;;;16714878;28;20226;-83
2022/07/24 12:56:17;;;;;;;8.43;7.83;;;;;37.90;98982.00;;;;16706766;28;20772;-82
2022/07/24 13:04:24;;;;;;;7.03;6.63;;;;;37.20;98972.00;;;;16712422;28;20308;-83
2022/07/24 13:12:26;;;;;;;9.20;7.67;;;;;39.20;98967.00;;;;16712890;28;20304;-83
2022/07/24 13:20:30;;;;;;;8.23;7.60;;;;;40.30;98959.00;;;;16733133;28;20278;-82
2022/07/24 13:28:32;;;;;;;8.20;7.70;;;;;39.00;98942.00;;;;16728273;28;20214;-82
2022/07/24 13:36:37;;;;;;;8.40;7.90;;;;;35.70;98937.00;;;;16717623;28;20226;-82
2022/07/24 13:44:39;;;;;;;9.17;8.47;;;;;36.60;98929.00;;;;16714910;28;20214;-83
2022/07/24 13:52:43;;;;;;;9.23;8.33;;;;;38.60;98925.00;;;;16718472;28;20230;-83
2022/07/24 14:00:46;;;;;;;8.30;7.70;;;;;39.40;98912.00;;;;16716979;28;20710;-84
2022/07/24 14:08:50;;;;;;;7.07;6.50;;;;;41.20;98906.00;;;;16726768;28;20205;-82
2022/07/24 14:16:52;;;;;;;8.53;7.93;;;;;40.90;98894.00;;;;16734402;28;20248;-82
2022/07/24 14:24:56;;;;;;;8.20;7.50;;;;;40.30;98887.00;;;;16745548;28;20303;-82
2022/07/24 14:32:59;;;;;;;8.00;7.40;;;;;41.70;98885.00;;;;16759908;28;20235;-82
2022/07/24 14:41:03;;;;;;;7.53;7.03;;;;;43.00;98872.00;;;;16736979;28;20596;-82
2022/07/24 14:49:05;;;;;;;7.93;7.33;;;;;41.10;98879.00;;;;16729099;28;20247;-82
2022/07/24 14:57:09;;;;;;;7.80;7.30;;;;;41.10;98857.00;;;;16730305;28;20225;-82
2022/07/24 15:05:12;;;;;;;8.20;7.60;;;;;41.70;98856.00;;;;16738154;28;20241;-82
2022/07/24 15:13:15;;;;;;;8.10;7.50;;;;;40.20;98850.00;;;;16765993;28;20263;-82
2022/07/24 15:21:18;;;;;;;7.50;7.00;;;;;41.30;98845.00;;;;16735253;28;20279;-82
2022/07/24 15:29:22;;;;;;;7.43;6.80;;;;;43.10;98836.00;;;;16730348;28;20797;-83
2022/07/24 15:37:24;;;;;;;8.67;8.07;;;;;44.20;98825.00;;;;16725950;28;20218;-82
2022/07/24 15:45:28;;;;;;;8.80;8.10;;;;;40.60;98813.00;;;;16718327;28;20218;-82
2022/07/24 15:53:32;;;;;;;8.27;7.67;;;;;40.60;98802.00;;;;16720318;28;20230;-82
2022/07/24 16:01:35;;;;;;;8.37;7.50;;;;;41.70;98811.00;;;;16719352;28;20222;-82
2022/07/24 16:09:38;;;;;;;8.67;8.07;;;;;41.80;98797.00;;;;16708993;28;20264;-82
2022/07/24 16:17:42;;;;;;;7.33;6.93;;;;;40.50;98772.00;;;;16722254;28;20217;-82
2022/07/24 16:25:45;;;;;;;8.10;7.50;;;;;42.10;98766.00;;;;16713786;28;20245;-82
2022/07/24 16:33:49;;;;;;;7.77;7.27;;;;;42.50;98748.00;;;;16734442;28;20230;-82
2022/07/24 16:41:51;;;;;;;8.37;7.77;;;;;42.60;98748.00;;;;16716407;28;20766;-83
2022/07/24 16:49:55;;;;;;;8.97;8.27;;;;;41.80;98745.00;;;;16719446;28;20218;-82
2022/07/24 16:57:58;;;;;;;8.03;7.53;;;;;42.60;98747.00;;;;16726433;28;20221;-82
2022/07/24 17:06:01;;;;;;;8.73;8.07;;;;;41.90;98742.00;;;;16776440;28;20305;-82
2022/07/24 17:14:04;;;;;;;8.57;7.87;;;;;41.50;98739.00;;;;16749890;28;20275;-82
2022/07/24 17:22:20;;;;;;;9.33;8.73;;;;;42.00;98737.00;;;;16751676;28;20759;-81
2022/07/24 17:30:22;;;;;;;9.90;9.10;;;;;43.20;98742.00;;;;16752665;28;20260;-82
2022/07/24 17:38:26;;;;;;;8.83;8.33;;;;;41.20;98734.00;;;;16753689;28;20198;-82
2022/07/24 17:46:28;;;;;;;8.90;8.33;;;;;42.00;98725.00;;;;16765843;28;20218;-82
2022/07/24 17:54:34;;;;;;;9.93;9.00;;;;;41.00;98723.00;;;;16766294;28;20234;-83
2022/07/24 18:02:36;;;;;;;8.40;7.80;;;;;40.90;98720.00;;;;16747251;28;20230;-83
2022/07/24 18:10:40;;;;;;;8.97;8.27;;;;;41.00;98715.00;;;;16726499;28;20259;-79
2022/07/24 18:18:43;;;;;;;9.87;9.20;;;;;40.10;98711.00;;;;16715489;28;20276;-80
2022/07/24 18:26:47;;;;;;;12.50;9.53;;;;;36.80;98707.00;;;;16721755;28;20225;-79
2022/07/24 18:34:49;;;;;;;10.87;9.97;;;;;33.20;98703.00;;;;16716579;28;20295;-79
2022/07/24 18:42:53;;;;;;;10.17;9.37;;;;;31.80;98706.00;;;;16720796;28;20669;-79
2022/07/24 18:50:55;;;;;;;11.30;10.40;;;;;30.70;98710.00;;;;16724292;28;20218;-78
2022/07/24 18:59:00;;;;;;;11.73;10.83;;;;;30.30;98707.00;;;;16736204;28;20212;-78
2022/07/24 19:07:04;;;;;;;13.30;12.03;;;;;29.40;98699.00;;;;16737087;28;20284;-77
2022/07/24 19:15:09;;;;;;;12.30;11.40;;;;;29.00;98709.00;;;;16717673;28;20710;-77
2022/07/24 19:23:12;;;;;;;12.40;11.40;;;;;28.80;98712.00;;;;16723023;28;20230;-76
2022/07/24 19:31:15;;;;;;;12.97;11.77;;;;;28.10;98716.00;;;;16723086;28;20233;-77
2022/07/24 19:39:18;;;;;;;12.90;11.83;;;;;27.80;98713.00;;;;16720432;28;20202;-77
2022/07/24 19:47:23;;;;;;;12.93;11.63;;;;;27.30;98717.00;;;;16712167;28;20299;-77
2022/07/24 19:55:26;;;;;;;12.37;11.30;;;;;27.30;98724.00;;;;16742685;28;20304;-77
2022/07/24 20:03:30;;;;;;;12.83;11.83;;;;;26.80;98724.00;;;;16723590;28;20290;-78
2022/07/24 20:11:32;;;;;;;12.80;11.80;;;;;27.00;98720.00;;;;16729038;28;20651;-77
2022/07/24 20:19:36;;;;;;;12.73;11.73;;;;;26.50;98714.00;;;;16716806;28;20953;-78
2022/07/24 20:27:39;;;;;;;12.77;11.83;;;;;26.80;98716.00;;;;16718312;28;20258;-80
2022/07/24 20:35:42;;;;;;;13.77;12.50;;;;;26.70;98717.00;;;;16725367;28;20225;-80
2022/07/24 20:43:46;;;;;;;13.10;11.97;;;;;26.80;98715.00;;;;16719705;28;20227;-80
2022/07/24 20:51:50;;;;;;;12.53;11.60;;;;;26.70;98714.00;;;;16727724;28;20225;-79
2022/07/24 20:59:52;;;;;;;14.33;12.90;;;;;26.30;98714.00;;;;16727426;28;20208;-79
2022/07/24 21:07:56;;;;;;;15.13;13.83;;;;;25.90;98706.00;;;;16729631;28;20283;-79
2022/07/24 21:15:59;;;;;;;13.13;12.13;;;;;26.20;98705.00;;;;16727345;28;20376;-80
2022/07/24 21:24:03;;;;;;;12.60;11.60;;;;;25.40;98696.00;;;;16726477;28;20229;-82
2022/07/24 21:32:06;;;;;;;13.33;12.37;;;;;25.70;98710.00;;;;16715822;28;20279;-81
2022/07/24 21:40:10;;;;;;;12.30;11.47;;;;;26.10;98708.00;;;;16718357;28;20216;-81
2022/07/24 21:48:13;;;;;;;12.50;11.57;;;;;26.10;98715.00;;;;16755026;28;20295;-81
2022/07/24 21:56:17;;;;;;;14.10;12.70;;;;;25.90;98715.00;;;;16720949;28;20275;-81
2022/07/24 22:04:19;;;;;;;12.80;11.80;;;;;27.00;98706.00;;;;16723854;28;20241;-81
2022/07/24 22:12:23;;;;;;;12.27;11.37;;;;;25.30;98705.00;;;;16745391;28;20271;-81
2022/07/24 22:20:26;;;;;;;14.33;13.23;;;;;25.70;98700.00;;;;16727091;28;20198;-81
2022/07/24 22:28:29;;;;;;;12.93;12.00;;;;;24.60;98699.00;;;;16742887;28;20212;-81
2022/07/24 22:36:35;;;;;;;13.20;12.10;;;;;24.70;98703.00;;;;16737303;28;20245;-81
2022/07/24 22:44:39;;;;;;;14.53;13.30;;;;;24.80;98709.00;;;;16728915;28;20218;-81
2022/07/24 22:52:42;;;;;;;14.13;12.93;;;;;24.80;98701.00;;;;16733958;28;20230;-82
2022/07/24 23:00:46;;;;;;;14.67;13.17;;;;;24.80;98689.00;;;;16745049;28;20793;-81
2022/07/24 23:08:49;;;;;;;14.87;13.67;;;;;24.40;98694.00;;;;16725263;28;20251;-81
2022/07/24 23:16:53;;;;;;;14.13;13.00;;;;;25.50;98680.00;;;;16727422;28;20294;-82
2022/07/24 23:24:55;;;;;;;13.37;12.37;;;;;25.10;98672.00;;;;16723194;28;20217;-81
2022/07/24 23:32:59;;;;;;;12.87;11.87;;;;;25.70;98655.00;;;;16718363;28;20225;-82
2022/07/24 23:41:02;;;;;;;14.40;13.30;;;;;26.10;98645.00;;;;16714367;28;20317;-81
2022/07/24 23:49:06;;;;;;;13.60;12.37;;;;;24.60;98639.00;;;;16713843;28;20198;-81
2022/07/24 23:57:08;;;;;;;15.43;14.23;;;;;23.90;98657.00;;;;16715989;28;20222;-82
